sensor_id;sensor_type;location;lat;lon;timestamp;temperature;humidity
12276;DHT22;6200;48.144;11.424;2023-11-22T00:01:59;7.40;99.90
12276;DHT22;6200;48.144;11.424;2023-11-22T00:04:24;7.40;99.90
12276;DHT22;6200;48.144;11.424;2023-11-22T00:06:50;7.30;99.90
12276;DHT22;6200;48.144;11.424;2023-11-22T00:09:16;7.30;99.90
12276;DHT22;6200;48.144;11.424;2023-11-22T00:11:41;7.30;99.90
12276;DHT22;6200;48.144;11.424;2023-11-22T00:14:07;7.30;99.90
12276;DHT22;6200;48.144;11.424;2023-11-22T00:16:32;7.30;99.90
12276;DHT22;6200;48.144;11.424;2023-11-22T00:18:59;7.30;99.90
12276;DHT22;6200;48.144;11.424;2023-11-22T00:21:25;7.30;99.90
12276;DHT22;6200;48.144;11.424;2023-11-22T00:23:50;7.30;99.90
12276;DHT22;6200;48.144;11.424;2023-11-22T00:26:16;7.30;99.90
12276;DHT22;6200;48.144;11.424;2023-11-22T00:28:42;7.30;99.90
12276;DHT22;6200;48.144;11.424;2023-11-22T00:31:07;7.30;99.90
12276;DHT22;6200;48.144;11.424;2023-11-22T00:33:33;7.30;99.90
12276;DHT22;6200;48.144;11.424;2023-11-22T00:36:00;7.30;99.90
12276;DHT22;6200;48.144;11.424;2023-11-22T00:38:26;7.30;99.90
12276;DHT22;6200;48.144;11.424;2023-11-22T00:40:51;7.20;99.90
12276;DHT22;6200;48.144;11.424;2023-11-22T00:43:17;7.30;99.90
12276;DHT22;6200;48.144;11.424;2023-11-22T00:45:44;7.20;99.90
12276;DHT22;6200;48.144;11.424;2023-11-22T00:48:10;7.30;99.90
12276;DHT22;6200;48.144;11.424;2023-11-22T00:50:36;7.30;99.90
12276;DHT22;6200;48.144;11.424;2023-11-22T00:53:01;7.30;99.90
12276;DHT22;6200;48.144;11.424;2023-11-22T00:55:27;7.30;99.90
12276;DHT22;6200;48.144;11.424;2023-11-22T00:57:52;7.30;99.90
12276;DHT22;6200;48.144;11.424;2023-11-22T01:00:18;7.40;99.90
12276;DHT22;6200;48.144;11.424;2023-11-22T01:02:43;7.30;99.90
12276;DHT22;6200;48.144;11.424;2023-11-22T01:05:09;7.30;99.90
12276;DHT22;6200;48.144;11.424;2023-11-22T01:07:38;7.30;99.90
12276;DHT22;6200;48.144;11.424;2023-11-22T01:10:04;8.90;99.90
12276;DHT22;6200;48.144;11.424;2023-11-22T01:12:31;7.30;99.90
12276;DHT22;6200;48.144;11.424;2023-11-22T01:14:57;7.30;99.90
12276;DHT22;6200;48.144;11.424;2023-11-22T01:17:22;7.30;99.90
12276;DHT22;6200;48.144;11.424;2023-11-22T01:19:49;7.20;99.90
12276;DHT22;6200;48.144;11.424;2023-11-22T01:22:16;7.20;99.90
12276;DHT22;6200;48.144;11.424;2023-11-22T01:24:42;7.30;99.90
12276;DHT22;6200;48.144;11.424;2023-11-22T01:27:08;7.30;99.90
12276;DHT22;6200;48.144;11.424;2023-11-22T01:29:34;7.30;99.90
12276;DHT22;6200;48.144;11.424;2023-11-22T01:32:00;7.30;99.90
12276;DHT22;6200;48.144;11.424;2023-11-22T01:34:26;7.30;99.90
12276;DHT22;6200;48.144;11.424;2023-11-22T01:36:51;7.30;99.90
12276;DHT22;6200;48.144;11.424;2023-11-22T01:39:17;7.30;99.90
12276;DHT22;6200;48.144;11.424;2023-11-22T01:41:45;7.30;99.90
12276;DHT22;6200;48.144;11.424;2023-11-22T01:44:11;7.30;99.90
12276;DHT22;6200;48.144;11.424;2023-11-22T01:46:37;7.30;99.90
12276;DHT22;6200;48.144;11.424;2023-11-22T01:49:03;7.30;99.90
12276;DHT22;6200;48.144;11.424;2023-11-22T01:51:29;7.30;99.90
12276;DHT22;6200;48.144;11.424;2023-11-22T01:53:56;7.30;99.90
12276;DHT22;6200;48.144;11.424;2023-11-22T01:56:23;7.30;99.90
12276;DHT22;6200;48.144;11.424;2023-11-22T01:58:52;7.30;99.90
12276;DHT22;6200;48.144;11.424;2023-11-22T02:01:20;7.30;99.90
12276;DHT22;6200;48.144;11.424;2023-11-22T02:03:46;7.30;99.90
12276;DHT22;6200;48.144;11.424;2023-11-22T02:06:15;7.30;99.90
12276;DHT22;6200;48.144;11.424;2023-11-22T02:08:42;7.30;99.90
12276;DHT22;6200;48.144;11.424;2023-11-22T02:11:08;7.30;99.90
12276;DHT22;6200;48.144;11.424;2023-11-22T02:13:33;7.30;99.90
12276;DHT22;6200;48.144;11.424;2023-11-22T02:15:59;7.30;99.90
12276;DHT22;6200;48.144;11.424;2023-11-22T02:18:27;7.30;99.90
12276;DHT22;6200;48.144;11.424;2023-11-22T02:20:53;7.20;99.90
12276;DHT22;6200;48.144;11.424;2023-11-22T02:23:18;7.10;99.90
12276;DHT22;6200;48.144;11.424;2023-11-22T02:25:44;7.00;99.90
12276;DHT22;6200;48.144;11.424;2023-11-22T02:28:11;6.90;99.90
12276;DHT22;6200;48.144;11.424;2023-11-22T02:30:37;6.60;99.90
12276;DHT22;6200;48.144;11.424;2023-11-22T02:33:03;6.50;99.90
12276;DHT22;6200;48.144;11.424;2023-11-22T02:35:30;6.50;99.90
12276;DHT22;6200;48.144;11.424;2023-11-22T02:37:57;6.40;99.90
12276;DHT22;6200;48.144;11.424;2023-11-22T02:40:23;6.20;99.90
12276;DHT22;6200;48.144;11.424;2023-11-22T02:42:51;6.10;99.90
12276;DHT22;6200;48.144;11.424;2023-11-22T02:45:19;6.00;99.90
12276;DHT22;6200;48.144;11.424;2023-11-22T02:47:45;5.90;99.90
12276;DHT22;6200;48.144;11.424;2023-11-22T02:50:12;5.90;99.90
12276;DHT22;6200;48.144;11.424;2023-11-22T02:52:38;5.80;99.90
12276;DHT22;6200;48.144;11.424;2023-11-22T02:55:04;5.80;99.90
12276;DHT22;6200;48.144;11.424;2023-11-22T02:57:30;5.70;99.90
12276;DHT22;6200;48.144;11.424;2023-11-22T02:59:59;5.50;99.90
12276;DHT22;6200;48.144;11.424;2023-11-22T03:02:24;5.50;99.90
12276;DHT22;6200;48.144;11.424;2023-11-22T03:04:51;5.30;99.90
12276;DHT22;6200;48.144;11.424;2023-11-22T03:07:17;5.20;99.90
12276;DHT22;6200;48.144;11.424;2023-11-22T03:09:42;5.20;99.90
12276;DHT22;6200;48.144;11.424;2023-11-22T03:12:10;5.00;99.90
12276;DHT22;6200;48.144;11.424;2023-11-22T03:14:38;4.90;99.90
12276;DHT22;6200;48.144;11.424;2023-11-22T03:17:04;4.80;99.90
12276;DHT22;6200;48.144;11.424;2023-11-22T03:19:30;4.80;99.90
12276;DHT22;6200;48.144;11.424;2023-11-22T03:21:55;4.70;99.90
12276;DHT22;6200;48.144;11.424;2023-11-22T03:24:21;4.70;99.90
12276;DHT22;6200;48.144;11.424;2023-11-22T03:26:47;4.80;99.90
12276;DHT22;6200;48.144;11.424;2023-11-22T03:29:14;4.80;99.90
12276;DHT22;6200;48.144;11.424;2023-11-22T03:31:41;4.70;99.90
12276;DHT22;6200;48.144;11.424;2023-11-22T03:34:07;4.60;99.90
12276;DHT22;6200;48.144;11.424;2023-11-22T03:36:33;4.70;99.90
12276;DHT22;6200;48.144;11.424;2023-11-22T03:38:58;4.70;99.90
12276;DHT22;6200;48.144;11.424;2023-11-22T03:41:24;4.70;99.90
12276;DHT22;6200;48.144;11.424;2023-11-22T03:43:50;4.70;99.90
12276;DHT22;6200;48.144;11.424;2023-11-22T03:46:15;4.80;99.90
12276;DHT22;6200;48.144;11.424;2023-11-22T03:48:41;4.70;99.90
12276;DHT22;6200;48.144;11.424;2023-11-22T03:51:06;4.70;99.90
12276;DHT22;6200;48.144;11.424;2023-11-22T03:53:32;4.70;99.90
12276;DHT22;6200;48.144;11.424;2023-11-22T03:55:57;4.70;99.90
12276;DHT22;6200;48.144;11.424;2023-11-22T03:58:24;4.70;99.90
12276;DHT22;6200;48.144;11.424;2023-11-22T04:00:51;4.70;99.90
12276;DHT22;6200;48.144;11.424;2023-11-22T04:03:18;4.70;99.90
12276;DHT22;6200;48.144;11.424;2023-11-22T04:05:44;4.70;99.90
12276;DHT22;6200;48.144;11.424;2023-11-22T04:08:09;4.70;99.90
12276;DHT22;6200;48.144;11.424;2023-11-22T04:10:35;4.70;99.90
12276;DHT22;6200;48.144;11.424;2023-11-22T04:13:01;4.70;99.90
12276;DHT22;6200;48.144;11.424;2023-11-22T04:15:26;4.70;99.90
12276;DHT22;6200;48.144;11.424;2023-11-22T04:17:52;4.80;99.90
12276;DHT22;6200;48.144;11.424;2023-11-22T04:20:20;4.80;99.90
12276;DHT22;6200;48.144;11.424;2023-11-22T04:22:45;4.80;99.90
12276;DHT22;6200;48.144;11.424;2023-11-22T04:25:11;4.70;99.90
12276;DHT22;6200;48.144;11.424;2023-11-22T04:27:40;4.70;99.90
12276;DHT22;6200;48.144;11.424;2023-11-22T04:30:07;4.70;99.90
12276;DHT22;6200;48.144;11.424;2023-11-22T04:32:40;4.60;99.90
12276;DHT22;6200;48.144;11.424;2023-11-22T04:35:07;4.70;99.90
12276;DHT22;6200;48.144;11.424;2023-11-22T04:37:33;4.70;99.90
12276;DHT22;6200;48.144;11.424;2023-11-22T04:40:00;4.60;99.90
12276;DHT22;6200;48.144;11.424;2023-11-22T04:42:26;4.60;99.90
12276;DHT22;6200;48.144;11.424;2023-11-22T04:44:56;4.60;99.90
12276;DHT22;6200;48.144;11.424;2023-11-22T04:47:21;3.50;99.90
12276;DHT22;6200;48.144;11.424;2023-11-22T04:49:48;4.60;99.90
12276;DHT22;6200;48.144;11.424;2023-11-22T04:52:13;4.60;99.90
12276;DHT22;6200;48.144;11.424;2023-11-22T04:54:39;4.60;99.90
12276;DHT22;6200;48.144;11.424;2023-11-22T04:57:05;4.70;99.90
12276;DHT22;6200;48.144;11.424;2023-11-22T04:59:31;4.60;99.90
12276;DHT22;6200;48.144;11.424;2023-11-22T05:01:57;4.60;99.90
12276;DHT22;6200;48.144;11.424;2023-11-22T05:04:22;4.60;99.90
12276;DHT22;6200;48.144;11.424;2023-11-22T05:06:48;4.60;99.90
12276;DHT22;6200;48.144;11.424;2023-11-22T05:09:13;4.60;99.90
12276;DHT22;6200;48.144;11.424;2023-11-22T05:11:39;4.60;99.90
12276;DHT22;6200;48.144;11.424;2023-11-22T05:14:07;4.50;99.90
12276;DHT22;6200;48.144;11.424;2023-11-22T05:16:32;4.50;99.90
12276;DHT22;6200;48.144;11.424;2023-11-22T05:18:59;4.50;99.90
12276;DHT22;6200;48.144;11.424;2023-11-22T05:21:24;4.40;99.90
12276;DHT22;6200;48.144;11.424;2023-11-22T05:23:50;4.50;99.90
12276;DHT22;6200;48.144;11.424;2023-11-22T05:26:15;4.50;99.90
12276;DHT22;6200;48.144;11.424;2023-11-22T05:28:41;4.50;99.90
12276;DHT22;6200;48.144;11.424;2023-11-22T05:31:07;4.40;99.90
12276;DHT22;6200;48.144;11.424;2023-11-22T05:33:32;4.30;99.90
12276;DHT22;6200;48.144;11.424;2023-11-22T05:35:58;2.50;99.90
12276;DHT22;6200;48.144;11.424;2023-11-22T05:38:23;4.20;99.90
12276;DHT22;6200;48.144;11.424;2023-11-22T05:40:49;4.30;99.90
12276;DHT22;6200;48.144;11.424;2023-11-22T05:43:14;4.20;99.90
12276;DHT22;6200;48.144;11.424;2023-11-22T05:45:40;4.30;99.90
12276;DHT22;6200;48.144;11.424;2023-11-22T05:48:06;4.30;99.90
12276;DHT22;6200;48.144;11.424;2023-11-22T05:50:31;4.30;99.90
12276;DHT22;6200;48.144;11.424;2023-11-22T05:52:57;4.30;99.90
12276;DHT22;6200;48.144;11.424;2023-11-22T05:55:22;4.30;99.90
12276;DHT22;6200;48.144;11.424;2023-11-22T05:57:49;4.30;99.90
12276;DHT22;6200;48.144;11.424;2023-11-22T06:00:14;4.30;99.90
12276;DHT22;6200;48.144;11.424;2023-11-22T06:02:41;4.30;99.90
12276;DHT22;6200;48.144;11.424;2023-11-22T06:05:07;4.20;99.90
12276;DHT22;6200;48.144;11.424;2023-11-22T06:07:32;4.30;99.90
12276;DHT22;6200;48.144;11.424;2023-11-22T06:09:58;4.30;99.90
12276;DHT22;6200;48.144;11.424;2023-11-22T06:12:24;4.40;99.90
12276;DHT22;6200;48.144;11.424;2023-11-22T06:14:49;4.30;99.90
12276;DHT22;6200;48.144;11.424;2023-11-22T06:17:15;4.30;99.90
12276;DHT22;6200;48.144;11.424;2023-11-22T06:19:41;4.40;99.90
12276;DHT22;6200;48.144;11.424;2023-11-22T06:22:07;4.40;99.90
12276;DHT22;6200;48.144;11.424;2023-11-22T06:24:33;4.30;99.90
12276;DHT22;6200;48.144;11.424;2023-11-22T06:26:59;4.30;99.90
12276;DHT22;6200;48.144;11.424;2023-11-22T06:29:25;4.40;99.90
12276;DHT22;6200;48.144;11.424;2023-11-22T06:31:50;4.40;99.90
12276;DHT22;6200;48.144;11.424;2023-11-22T06:34:16;4.30;99.90
12276;DHT22;6200;48.144;11.424;2023-11-22T06:36:42;4.40;99.90
12276;DHT22;6200;48.144;11.424;2023-11-22T06:39:07;4.30;99.90
12276;DHT22;6200;48.144;11.424;2023-11-22T06:41:34;4.40;99.90
12276;DHT22;6200;48.144;11.424;2023-11-22T06:44:00;4.40;99.90
12276;DHT22;6200;48.144;11.424;2023-11-22T06:46:26;4.20;99.90
12276;DHT22;6200;48.144;11.424;2023-11-22T06:48:51;4.20;99.90
12276;DHT22;6200;48.144;11.424;2023-11-22T06:51:17;4.10;99.90
12276;DHT22;6200;48.144;11.424;2023-11-22T06:53:44;4.20;99.90
12276;DHT22;6200;48.144;11.424;2023-11-22T06:56:10;4.20;99.90
12276;DHT22;6200;48.144;11.424;2023-11-22T06:58:36;4.10;99.90
12276;DHT22;6200;48.144;11.424;2023-11-22T07:01:02;4.10;99.90
12276;DHT22;6200;48.144;11.424;2023-11-22T07:03:27;4.10;99.90
12276;DHT22;6200;48.144;11.424;2023-11-22T07:05:53;4.00;99.90
12276;DHT22;6200;48.144;11.424;2023-11-22T07:08:18;4.10;99.90
12276;DHT22;6200;48.144;11.424;2023-11-22T07:10:45;4.00;99.90
12276;DHT22;6200;48.144;11.424;2023-11-22T07:13:11;4.10;99.90
12276;DHT22;6200;48.144;11.424;2023-11-22T07:15:38;4.10;99.90
12276;DHT22;6200;48.144;11.424;2023-11-22T07:18:03;4.10;99.90
12276;DHT22;6200;48.144;11.424;2023-11-22T07:20:30;4.10;99.90
12276;DHT22;6200;48.144;11.424;2023-11-22T07:22:56;4.10;99.90
12276;DHT22;6200;48.144;11.424;2023-11-22T07:25:23;4.20;99.90
12276;DHT22;6200;48.144;11.424;2023-11-22T07:27:51;4.20;99.90
12276;DHT22;6200;48.144;11.424;2023-11-22T07:30:17;4.20;99.90
12276;DHT22;6200;48.144;11.424;2023-11-22T07:32:45;4.10;99.90
12276;DHT22;6200;48.144;11.424;2023-11-22T07:35:11;4.10;99.90
12276;DHT22;6200;48.144;11.424;2023-11-22T07:37:38;4.20;99.90
12276;DHT22;6200;48.144;11.424;2023-11-22T07:40:10;4.20;99.90
12276;DHT22;6200;48.144;11.424;2023-11-22T07:42:38;4.20;99.90
12276;DHT22;6200;48.144;11.424;2023-11-22T07:45:04;4.20;99.90
12276;DHT22;6200;48.144;11.424;2023-11-22T07:47:30;4.30;99.90
12276;DHT22;6200;48.144;11.424;2023-11-22T07:49:56;4.30;99.90
12276;DHT22;6200;48.144;11.424;2023-11-22T07:52:22;4.30;99.90
12276;DHT22;6200;48.144;11.424;2023-11-22T07:54:48;4.30;99.90
12276;DHT22;6200;48.144;11.424;2023-11-22T07:57:14;4.30;99.90
12276;DHT22;6200;48.144;11.424;2023-11-22T07:59:40;4.30;99.90
12276;DHT22;6200;48.144;11.424;2023-11-22T08:02:06;4.30;99.90
12276;DHT22;6200;48.144;11.424;2023-11-22T08:04:37;4.30;99.90
12276;DHT22;6200;48.144;11.424;2023-11-22T08:07:03;4.30;99.90
12276;DHT22;6200;48.144;11.424;2023-11-22T08:09:29;4.30;99.90
12276;DHT22;6200;48.144;11.424;2023-11-22T08:12:01;4.30;99.90
12276;DHT22;6200;48.144;11.424;2023-11-22T08:14:28;4.20;99.90
12276;DHT22;6200;48.144;11.424;2023-11-22T08:16:54;4.10;99.90
12276;DHT22;6200;48.144;11.424;2023-11-22T08:19:19;4.00;99.90
12276;DHT22;6200;48.144;11.424;2023-11-22T08:21:45;4.10;99.90
12276;DHT22;6200;48.144;11.424;2023-11-22T08:24:11;4.10;99.90
12276;DHT22;6200;48.144;11.424;2023-11-22T08:26:38;4.10;99.90
12276;DHT22;6200;48.144;11.424;2023-11-22T08:29:04;4.10;99.90
12276;DHT22;6200;48.144;11.424;2023-11-22T08:31:30;4.00;99.90
12276;DHT22;6200;48.144;11.424;2023-11-22T08:33:56;4.00;99.90
12276;DHT22;6200;48.144;11.424;2023-11-22T08:36:22;4.00;99.90
12276;DHT22;6200;48.144;11.424;2023-11-22T08:38:49;4.00;99.90
12276;DHT22;6200;48.144;11.424;2023-11-22T08:41:14;4.00;99.90
12276;DHT22;6200;48.144;11.424;2023-11-22T08:43:40;4.00;99.90
12276;DHT22;6200;48.144;11.424;2023-11-22T08:46:06;4.00;99.90
12276;DHT22;6200;48.144;11.424;2023-11-22T08:48:33;4.00;99.90
12276;DHT22;6200;48.144;11.424;2023-11-22T08:51:00;4.00;99.90
12276;DHT22;6200;48.144;11.424;2023-11-22T08:53:26;4.10;99.90
12276;DHT22;6200;48.144;11.424;2023-11-22T08:55:51;4.10;99.90
12276;DHT22;6200;48.144;11.424;2023-11-22T08:58:20;4.10;99.90
12276;DHT22;6200;48.144;11.424;2023-11-22T09:00:45;4.00;99.90
12276;DHT22;6200;48.144;11.424;2023-11-22T09:03:11;4.10;99.90
12276;DHT22;6200;48.144;11.424;2023-11-22T09:05:38;4.00;99.90
12276;DHT22;6200;48.144;11.424;2023-11-22T09:08:04;4.00;99.90
12276;DHT22;6200;48.144;11.424;2023-11-22T09:10:30;4.10;99.90
12276;DHT22;6200;48.144;11.424;2023-11-22T09:12:56;4.10;99.90
12276;DHT22;6200;48.144;11.424;2023-11-22T09:15:24;4.00;99.90
12276;DHT22;6200;48.144;11.424;2023-11-22T09:17:51;4.10;99.90
12276;DHT22;6200;48.144;11.424;2023-11-22T09:20:19;4.10;99.90
12276;DHT22;6200;48.144;11.424;2023-11-22T09:22:50;4.10;99.90
12276;DHT22;6200;48.144;11.424;2023-11-22T09:25:26;4.10;99.90
12276;DHT22;6200;48.144;11.424;2023-11-22T09:27:54;4.10;99.90
12276;DHT22;6200;48.144;11.424;2023-11-22T09:30:22;4.10;99.90
12276;DHT22;6200;48.144;11.424;2023-11-22T09:33:11;4.10;99.90
12276;DHT22;6200;48.144;11.424;2023-11-22T09:35:38;4.20;99.90
12276;DHT22;6200;48.144;11.424;2023-11-22T09:38:06;4.30;99.90
12276;DHT22;6200;48.144;11.424;2023-11-22T09:40:35;4.30;99.90
12276;DHT22;6200;48.144;11.424;2023-11-22T09:43:02;4.40;99.90
12276;DHT22;6200;48.144;11.424;2023-11-22T09:45:28;4.40;99.90
12276;DHT22;6200;48.144;11.424;2023-11-22T09:47:57;4.50;99.90
12276;DHT22;6200;48.144;11.424;2023-11-22T09:50:34;4.50;99.90
12276;DHT22;6200;48.144;11.424;2023-11-22T09:53:02;4.50;99.90
12276;DHT22;6200;48.144;11.424;2023-11-22T09:55:30;4.60;99.90
12276;DHT22;6200;48.144;11.424;2023-11-22T09:57:59;4.50;99.90
12276;DHT22;6200;48.144;11.424;2023-11-22T10:00:28;4.50;99.90
12276;DHT22;6200;48.144;11.424;2023-11-22T10:02:56;4.50;99.90
12276;DHT22;6200;48.144;11.424;2023-11-22T10:05:21;4.50;99.90
12276;DHT22;6200;48.144;11.424;2023-11-22T10:07:47;4.50;99.90
12276;DHT22;6200;48.144;11.424;2023-11-22T10:10:14;4.50;99.90
12276;DHT22;6200;48.144;11.424;2023-11-22T10:12:42;4.50;99.90
12276;DHT22;6200;48.144;11.424;2023-11-22T10:15:16;4.50;99.90
12276;DHT22;6200;48.144;11.424;2023-11-22T10:17:54;4.40;99.90
12276;DHT22;6200;48.144;11.424;2023-11-22T10:23:14;4.60;99.90
12276;DHT22;6200;48.144;11.424;2023-11-22T10:25:50;4.60;99.90
12276;DHT22;6200;48.144;11.424;2023-11-22T10:28:21;4.70;99.90
12276;DHT22;6200;48.144;11.424;2023-11-22T10:30:48;4.80;99.90
12276;DHT22;6200;48.144;11.424;2023-11-22T10:33:15;4.90;99.90
12276;DHT22;6200;48.144;11.424;2023-11-22T10:35:45;4.80;99.90
12276;DHT22;6200;48.144;11.424;2023-11-22T10:38:13;4.80;99.90
12276;DHT22;6200;48.144;11.424;2023-11-22T10:40:39;4.80;99.90
12276;DHT22;6200;48.144;11.424;2023-11-22T10:43:07;4.90;99.90
12276;DHT22;6200;48.144;11.424;2023-11-22T10:45:34;4.90;99.90
12276;DHT22;6200;48.144;11.424;2023-11-22T10:48:00;5.00;99.90
12276;DHT22;6200;48.144;11.424;2023-11-22T10:50:26;5.00;99.90
12276;DHT22;6200;48.144;11.424;2023-11-22T10:52:56;5.00;99.90
12276;DHT22;6200;48.144;11.424;2023-11-22T10:55:26;5.00;99.90
12276;DHT22;6200;48.144;11.424;2023-11-22T10:57:55;4.90;99.90
12276;DHT22;6200;48.144;11.424;2023-11-22T11:00:23;4.90;99.90
12276;DHT22;6200;48.144;11.424;2023-11-22T11:02:59;5.00;99.90
12276;DHT22;6200;48.144;11.424;2023-11-22T11:05:28;5.00;99.90
12276;DHT22;6200;48.144;11.424;2023-11-22T11:10:26;5.10;99.90
12276;DHT22;6200;48.144;11.424;2023-11-22T11:12:52;5.20;99.90
12276;DHT22;6200;48.144;11.424;2023-11-22T11:15:19;5.10;99.90
12276;DHT22;6200;48.144;11.424;2023-11-22T11:17:47;5.10;99.90
12276;DHT22;6200;48.144;11.424;2023-11-22T11:20:15;5.10;99.90
12276;DHT22;6200;48.144;11.424;2023-11-22T11:22:43;5.10;99.90
12276;DHT22;6200;48.144;11.424;2023-11-22T11:25:08;5.10;99.90
12276;DHT22;6200;48.144;11.424;2023-11-22T11:27:34;5.00;99.90
12276;DHT22;6200;48.144;11.424;2023-11-22T11:33:17;5.00;99.90
12276;DHT22;6200;48.144;11.424;2023-11-22T11:38:13;5.00;99.90
12276;DHT22;6200;48.144;11.424;2023-11-22T11:40:41;5.10;99.90
12276;DHT22;6200;48.144;11.424;2023-11-22T11:43:07;5.10;99.90
12276;DHT22;6200;48.144;11.424;2023-11-22T11:45:39;5.10;99.90
12276;DHT22;6200;48.144;11.424;2023-11-22T11:48:06;5.00;99.90
12276;DHT22;6200;48.144;11.424;2023-11-22T11:50:33;5.00;99.90
12276;DHT22;6200;48.144;11.424;2023-11-22T11:52:58;5.00;99.90
12276;DHT22;6200;48.144;11.424;2023-11-22T11:55:26;5.00;99.90
12276;DHT22;6200;48.144;11.424;2023-11-22T11:57:55;5.10;99.90
12276;DHT22;6200;48.144;11.424;2023-11-22T12:00:22;5.10;99.90
12276;DHT22;6200;48.144;11.424;2023-11-22T12:02:50;5.10;99.90
12276;DHT22;6200;48.144;11.424;2023-11-22T12:05:18;5.00;99.90
12276;DHT22;6200;48.144;11.424;2023-11-22T12:07:44;5.00;99.90
12276;DHT22;6200;48.144;11.424;2023-11-22T12:10:09;5.10;99.90
12276;DHT22;6200;48.144;11.424;2023-11-22T12:12:35;5.00;99.90
12276;DHT22;6200;48.144;11.424;2023-11-22T12:15:01;5.10;99.90
12276;DHT22;6200;48.144;11.424;2023-11-22T12:17:27;5.10;99.90
12276;DHT22;6200;48.144;11.424;2023-11-22T12:20:09;5.20;99.90
12276;DHT22;6200;48.144;11.424;2023-11-22T12:22:36;5.20;99.90
12276;DHT22;6200;48.144;11.424;2023-11-22T12:25:01;5.30;99.90
12276;DHT22;6200;48.144;11.424;2023-11-22T12:27:27;5.30;99.90
12276;DHT22;6200;48.144;11.424;2023-11-22T12:29:53;5.40;99.90
12276;DHT22;6200;48.144;11.424;2023-11-22T12:32:26;5.40;99.90
12276;DHT22;6200;48.144;11.424;2023-11-22T12:34:52;5.40;99.90
12276;DHT22;6200;48.144;11.424;2023-11-22T12:37:22;5.40;99.90
12276;DHT22;6200;48.144;11.424;2023-11-22T12:39:48;5.40;99.90
12276;DHT22;6200;48.144;11.424;2023-11-22T12:42:14;5.30;99.90
12276;DHT22;6200;48.144;11.424;2023-11-22T12:44:52;5.30;99.90
12276;DHT22;6200;48.144;11.424;2023-11-22T12:47:33;5.30;99.90
12276;DHT22;6200;48.144;11.424;2023-11-22T12:50:03;5.20;99.90
12276;DHT22;6200;48.144;11.424;2023-11-22T12:52:32;5.20;99.90
12276;DHT22;6200;48.144;11.424;2023-11-22T12:54:58;5.30;99.90
12276;DHT22;6200;48.144;11.424;2023-11-22T12:57:24;5.30;99.90
12276;DHT22;6200;48.144;11.424;2023-11-22T12:59:50;5.20;99.90
12276;DHT22;6200;48.144;11.424;2023-11-22T13:02:16;5.20;99.90
12276;DHT22;6200;48.144;11.424;2023-11-22T13:04:42;5.20;99.90
12276;DHT22;6200;48.144;11.424;2023-11-22T13:07:08;5.10;99.90
12276;DHT22;6200;48.144;11.424;2023-11-22T13:09:34;5.20;99.90
12276;DHT22;6200;48.144;11.424;2023-11-22T13:12:01;5.10;99.90
12276;DHT22;6200;48.144;11.424;2023-11-22T13:14:26;5.10;99.90
12276;DHT22;6200;48.144;11.424;2023-11-22T13:16:57;5.10;99.90
12276;DHT22;6200;48.144;11.424;2023-11-22T13:19:23;5.10;99.90
12276;DHT22;6200;48.144;11.424;2023-11-22T13:21:50;5.10;99.90
12276;DHT22;6200;48.144;11.424;2023-11-22T13:24:15;5.10;99.90
12276;DHT22;6200;48.144;11.424;2023-11-22T13:26:43;5.10;99.90
12276;DHT22;6200;48.144;11.424;2023-11-22T13:29:09;5.10;99.90
12276;DHT22;6200;48.144;11.424;2023-11-22T13:31:34;5.10;99.90
12276;DHT22;6200;48.144;11.424;2023-11-22T13:34:00;5.10;99.90
12276;DHT22;6200;48.144;11.424;2023-11-22T13:36:25;5.10;99.90
12276;DHT22;6200;48.144;11.424;2023-11-22T13:38:51;5.10;99.90
12276;DHT22;6200;48.144;11.424;2023-11-22T13:41:17;5.10;99.90
12276;DHT22;6200;48.144;11.424;2023-11-22T13:43:42;5.10;99.90
12276;DHT22;6200;48.144;11.424;2023-11-22T13:46:08;5.20;99.90
12276;DHT22;6200;48.144;11.424;2023-11-22T13:48:37;5.10;99.90
12276;DHT22;6200;48.144;11.424;2023-11-22T13:51:03;5.10;99.90
12276;DHT22;6200;48.144;11.424;2023-11-22T13:53:29;5.10;99.90
12276;DHT22;6200;48.144;11.424;2023-11-22T13:55:59;5.10;99.90
12276;DHT22;6200;48.144;11.424;2023-11-22T13:58:26;5.00;99.90
12276;DHT22;6200;48.144;11.424;2023-11-22T14:00:51;5.00;99.90
12276;DHT22;6200;48.144;11.424;2023-11-22T14:03:19;5.00;99.90
12276;DHT22;6200;48.144;11.424;2023-11-22T14:05:47;5.00;99.90
12276;DHT22;6200;48.144;11.424;2023-11-22T14:08:13;5.00;99.90
12276;DHT22;6200;48.144;11.424;2023-11-22T14:10:40;5.00;99.90
12276;DHT22;6200;48.144;11.424;2023-11-22T14:13:06;5.00;99.90
12276;DHT22;6200;48.144;11.424;2023-11-22T14:15:34;5.00;99.90
12276;DHT22;6200;48.144;11.424;2023-11-22T14:17:59;5.10;99.90
12276;DHT22;6200;48.144;11.424;2023-11-22T14:20:25;5.10;99.90
12276;DHT22;6200;48.144;11.424;2023-11-22T14:22:51;5.00;99.90
12276;DHT22;6200;48.144;11.424;2023-11-22T14:25:17;4.90;99.90
12276;DHT22;6200;48.144;11.424;2023-11-22T14:27:45;4.80;99.90
12276;DHT22;6200;48.144;11.424;2023-11-22T14:30:12;4.80;99.90
12276;DHT22;6200;48.144;11.424;2023-11-22T14:32:42;4.80;99.90
12276;DHT22;6200;48.144;11.424;2023-11-22T14:35:08;4.80;99.90
12276;DHT22;6200;48.144;11.424;2023-11-22T14:37:34;4.80;99.90
12276;DHT22;6200;48.144;11.424;2023-11-22T14:40:01;4.80;99.90
12276;DHT22;6200;48.144;11.424;2023-11-22T14:42:29;4.80;99.90
12276;DHT22;6200;48.144;11.424;2023-11-22T14:44:55;4.80;99.90
12276;DHT22;6200;48.144;11.424;2023-11-22T14:47:20;4.80;99.90
12276;DHT22;6200;48.144;11.424;2023-11-22T14:49:51;4.70;99.90
12276;DHT22;6200;48.144;11.424;2023-11-22T14:52:16;4.60;99.90
12276;DHT22;6200;48.144;11.424;2023-11-22T14:54:42;4.60;99.90
12276;DHT22;6200;48.144;11.424;2023-11-22T14:57:10;4.60;99.90
12276;DHT22;6200;48.144;11.424;2023-11-22T14:59:40;4.60;99.90
12276;DHT22;6200;48.144;11.424;2023-11-22T15:02:07;4.60;99.90
12276;DHT22;6200;48.144;11.424;2023-11-22T15:04:36;4.60;99.90
12276;DHT22;6200;48.144;11.424;2023-11-22T15:07:03;4.60;99.90
12276;DHT22;6200;48.144;11.424;2023-11-22T15:09:30;4.60;99.90
12276;DHT22;6200;48.144;11.424;2023-11-22T15:11:58;4.60;99.90
12276;DHT22;6200;48.144;11.424;2023-11-22T15:14:24;4.60;99.90
12276;DHT22;6200;48.144;11.424;2023-11-22T15:16:51;4.60;99.90
12276;DHT22;6200;48.144;11.424;2023-11-22T15:19:17;4.60;99.90
12276;DHT22;6200;48.144;11.424;2023-11-22T15:21:43;4.60;99.90
12276;DHT22;6200;48.144;11.424;2023-11-22T15:24:09;4.60;99.90
12276;DHT22;6200;48.144;11.424;2023-11-22T15:26:34;4.60;99.90
12276;DHT22;6200;48.144;11.424;2023-11-22T15:29:00;4.50;99.90
12276;DHT22;6200;48.144;11.424;2023-11-22T15:31:26;4.50;99.90
12276;DHT22;6200;48.144;11.424;2023-11-22T15:33:51;4.50;99.90
12276;DHT22;6200;48.144;11.424;2023-11-22T15:36:17;4.50;99.90
12276;DHT22;6200;48.144;11.424;2023-11-22T15:38:42;4.40;99.90
12276;DHT22;6200;48.144;11.424;2023-11-22T15:41:08;2.80;99.90
12276;DHT22;6200;48.144;11.424;2023-11-22T15:43:34;4.40;99.90
12276;DHT22;6200;48.144;11.424;2023-11-22T15:46:00;4.40;99.90
12276;DHT22;6200;48.144;11.424;2023-11-22T15:48:25;4.40;99.90
12276;DHT22;6200;48.144;11.424;2023-11-22T15:50:51;4.40;99.90
12276;DHT22;6200;48.144;11.424;2023-11-22T15:53:16;4.40;99.90